createdAt,value
2018-02-20T00:02:18.613Z,69.13
2018-02-20T00:07:20.192Z,69.32
2018-02-20T00:12:22.533Z,69.73
2018-02-20T00:17:24.098Z,69.95
2018-02-20T00:22:26.432Z,70.34
2018-02-20T00:27:28.037Z,70.41
2018-02-20T00:32:29.383Z,70.65
2018-02-20T00:37:30.954Z,70.86
2018-02-20T00:42:32.531Z,71.16
2018-02-20T00:47:34.045Z,71.44
2018-02-20T00:52:35.652Z,71.38
2018-02-20T00:57:37.186Z,71.24
2018-02-20T01:02:38.738Z,71.14
2018-02-20T01:07:40.251Z,70.98
2018-02-20T01:12:42.531Z,70.91
2018-02-20T01:17:43.980Z,70.83
2018-02-20T01:22:45.499Z,70.96
2018-02-20T01:27:46.933Z,70.83
2018-02-20T01:32:49.230Z,71.15
2018-02-20T01:37:50.733Z,71.30
2018-02-20T01:42:52.309Z,71.21
2018-02-20T01:47:53.876Z,71.27
2018-02-20T01:52:55.282Z,71.52
2018-02-20T01:57:56.739Z,71.91
2018-02-20T02:02:58.295Z,72.38
2018-02-20T02:08:00.565Z,72.97
2018-02-20T02:13:01.951Z,73.22
2018-02-20T02:18:03.525Z,73.57
2018-02-20T02:23:04.912Z,74.08
2018-02-20T02:28:06.360Z,73.75
2018-02-20T02:33:07.889Z,74.21
2018-02-20T02:38:10.112Z,74.19
2018-02-20T02:43:11.665Z,74.61
2018-02-20T02:48:13.087Z,74.71
2018-02-20T02:53:23.090Z,74.66
2018-02-20T02:58:25.361Z,74.05
2018-02-20T03:03:26.895Z,73.42
2018-02-20T03:08:28.329Z,73.15
2018-02-20T03:13:29.885Z,72.76
2018-02-20T03:18:31.461Z,72.42
2018-02-20T03:23:33.768Z,72.31
2018-02-20T03:28:35.278Z,72.42
2018-02-20T03:33:37.413Z,72.70
2018-02-20T03:38:38.841Z,72.56
2018-02-20T03:43:40.167Z,72.54
2018-02-20T03:48:42.381Z,72.39
2018-02-20T03:53:44.504Z,72.21
2018-02-20T03:58:45.954Z,72.43
2018-02-20T04:03:47.357Z,72.58
2018-02-20T04:08:49.500Z,72.60
2018-02-20T04:13:50.932Z,72.49
2018-02-20T04:18:52.376Z,72.64
2018-02-20T04:23:53.958Z,72.28
2018-02-20T04:28:56.191Z,72.29
2018-02-20T04:33:57.765Z,72.11
2018-02-20T04:38:59.245Z,71.76
2018-02-20T04:44:01.543Z,71.86
2018-02-20T04:49:03.891Z,71.76
2018-02-20T04:54:05.428Z,71.51
2018-02-20T04:59:06.978Z,71.81
2018-02-20T05:04:08.542Z,71.59
2018-02-20T05:09:10.026Z,71.45
2018-02-20T05:14:11.595Z,71.43
2018-02-20T05:19:13.150Z,71.64
2018-02-20T05:24:14.632Z,72.00
2018-02-20T05:29:16.947Z,71.77
2018-02-20T05:34:19.307Z,72.00
2018-02-20T05:39:20.844Z,72.12
2018-02-20T05:44:23.211Z,73.19
2018-02-20T05:49:25.855Z,73.77
2018-02-20T05:54:27.420Z,73.95
2018-02-20T05:59:28.966Z,73.41
2018-02-20T06:04:31.371Z,73.67
2018-02-20T06:09:32.921Z,73.26
2018-02-20T06:14:35.102Z,73.79
2018-02-20T06:19:38.998Z,74.29
2018-02-20T06:24:41.001Z,74.52
2018-02-20T06:29:42.567Z,73.93
2018-02-20T06:34:44.096Z,73.61
2018-02-20T06:39:45.690Z,74.40
2018-02-20T06:44:47.260Z,74.95
2018-02-20T06:49:48.801Z,75.17
2018-02-20T06:54:50.417Z,74.57
2018-02-20T06:59:52.735Z,74.23
2018-02-20T07:04:54.252Z,74.51
2018-02-20T07:09:56.717Z,75.09
2018-02-20T07:14:58.300Z,75.16
2018-02-20T07:19:59.867Z,74.68
2018-02-20T07:25:01.355Z,74.43
2018-02-20T07:30:02.795Z,73.89
2018-02-20T07:35:04.801Z,73.89
2018-02-20T07:40:06.987Z,74.20
2018-02-20T07:45:08.560Z,73.91
2018-02-20T07:50:10.124Z,74.05
2018-02-20T07:55:11.702Z,73.46
2018-02-20T08:00:13.267Z,73.31
2018-02-20T08:05:14.806Z,73.61
2018-02-20T08:10:17.119Z,73.05
2018-02-20T08:15:18.861Z,72.64
2018-02-20T08:20:20.394Z,72.41
2018-02-20T08:25:21.947Z,72.18
2018-02-20T08:30:23.415Z,71.80
2018-02-20T08:35:24.779Z,71.59
2018-02-20T08:40:26.954Z,71.18
2018-02-20T08:45:28.313Z,70.98
2018-02-20T08:50:29.886Z,70.85
2018-02-20T08:55:32.154Z,70.82
2018-02-20T09:00:33.708Z,70.68
2018-02-20T09:05:35.262Z,69.91
2018-02-20T09:10:36.823Z,69.21
2018-02-20T09:15:38.208Z,67.84
2018-02-20T09:20:39.551Z,67.52
2018-02-20T09:25:41.649Z,66.37
2018-02-20T09:30:43.711Z,65.76
2018-02-20T09:35:45.102Z,64.52
2018-02-20T09:40:46.447Z,62.99
2018-02-20T09:45:48.523Z,61.92
2018-02-20T09:50:49.963Z,61.58
2018-02-20T09:55:51.330Z,61.24
2018-02-20T10:00:52.724Z,60.54
2018-02-20T10:05:54.865Z,59.73
2018-02-20T10:10:56.243Z,58.86
2018-02-20T10:15:57.619Z,59.04
2018-02-20T10:20:59.736Z,58.00
2018-02-20T10:26:01.849Z,57.83
2018-02-20T10:31:03.202Z,57.27
2018-02-20T10:36:04.564Z,57.01
2018-02-20T10:41:05.920Z,57.23
2018-02-20T10:46:07.273Z,57.04
2018-02-20T10:51:08.624Z,55.64
2018-02-20T10:56:09.959Z,54.96
2018-02-20T11:01:11.299Z,54.58
2018-02-20T11:06:12.740Z,54.42
2018-02-20T11:11:14.129Z,54.37
2018-02-20T11:16:15.510Z,54.36
2018-02-20T11:21:16.916Z,53.67
2018-02-20T11:26:18.996Z,53.83
2018-02-20T11:31:20.323Z,53.34
2018-02-20T11:36:21.655Z,52.42
2018-02-20T11:41:23.030Z,52.04
2018-02-20T11:46:24.387Z,51.14
2018-02-20T11:51:26.500Z,51.67
2018-02-20T11:56:28.583Z,50.23
2018-02-20T12:01:29.972Z,50.47
2018-02-20T12:06:31.344Z,50.68
2018-02-20T12:11:32.716Z,50.51
2018-02-20T12:16:34.232Z,49.67
2018-02-20T12:21:35.588Z,49.36
2018-02-20T12:26:36.978Z,49.00
2018-02-20T12:31:38.307Z,49.39
2018-02-20T12:36:39.652Z,48.18
2018-02-20T12:41:41.084Z,47.70
2018-02-20T12:46:42.402Z,47.64
2018-02-20T12:51:43.773Z,46.63
2018-02-20T12:56:45.123Z,45.96
2018-02-20T13:01:46.468Z,44.91
2018-02-20T13:06:48.547Z,45.00
2018-02-20T13:11:49.922Z,45.96
2018-02-20T13:16:51.304Z,45.51
2018-02-20T13:21:52.671Z,45.97
2018-02-20T13:26:54.044Z,45.63
2018-02-20T13:31:55.402Z,46.73
2018-02-20T13:36:56.766Z,48.02
2018-02-20T13:41:58.133Z,46.52
2018-02-20T13:46:59.522Z,46.80
2018-02-20T13:52:00.924Z,47.72
2018-02-20T13:57:02.280Z,47.76
2018-02-20T14:02:04.395Z,48.03
2018-02-20T14:07:06.504Z,47.47
2018-02-20T14:12:08.621Z,47.31
2018-02-20T14:17:09.948Z,46.15
2018-02-20T14:22:11.317Z,45.97
2018-02-20T14:27:12.716Z,46.91
2018-02-20T14:32:14.065Z,46.18
2018-02-20T14:37:15.447Z,46.76
2018-02-20T14:42:17.598Z,47.91
2018-02-20T14:47:18.980Z,48.52
2018-02-20T14:52:20.364Z,47.92
2018-02-20T14:57:21.822Z,47.87
2018-02-20T15:02:23.205Z,46.83
2018-02-20T15:07:25.390Z,46.54
2018-02-20T15:12:26.765Z,46.16
2018-02-20T15:17:28.173Z,47.66
2018-02-20T15:22:29.561Z,48.68
2018-02-20T15:27:30.955Z,49.16
2018-02-20T15:32:32.377Z,48.67
2018-02-20T15:37:33.791Z,48.76
2018-02-20T15:42:35.954Z,48.60
2018-02-20T15:47:37.331Z,48.34
2018-02-20T15:52:38.759Z,49.41
2018-02-20T15:57:40.156Z,49.26
2018-02-20T16:02:41.570Z,50.17
2018-02-20T16:07:42.909Z,49.61
2018-02-20T16:12:44.291Z,50.37
2018-02-20T16:17:45.644Z,50.21
2018-02-20T16:22:47.052Z,50.99
2018-02-20T16:27:48.415Z,51.14
2018-02-20T16:32:50.532Z,51.60
2018-02-20T16:37:51.904Z,52.04
2018-02-20T16:42:54.049Z,51.80
2018-02-20T16:47:55.410Z,51.76
2018-02-20T16:52:56.751Z,52.41
2018-02-20T16:57:58.251Z,51.86
2018-02-20T17:02:59.635Z,51.82
2018-02-20T17:08:00.980Z,52.60
2018-02-20T17:13:03.095Z,52.25
2018-02-20T17:18:04.481Z,52.17
2018-02-20T17:23:05.905Z,52.50
2018-02-20T17:28:07.365Z,53.39
2018-02-20T17:33:08.788Z,52.89
2018-02-20T17:38:10.177Z,52.71
2018-02-20T17:43:11.543Z,53.19
2018-02-20T17:48:12.960Z,53.81
2018-02-20T17:53:14.325Z,53.90
2018-02-20T17:58:15.695Z,54.35
2018-02-20T18:03:17.797Z,54.52
2018-02-20T18:08:19.263Z,55.91
2018-02-20T18:13:20.576Z,56.15
2018-02-20T18:18:22.644Z,56.41
2018-02-20T18:23:24.010Z,56.25
2018-02-20T18:28:25.375Z,56.73
2018-02-20T18:33:26.779Z,56.89
2018-02-20T18:38:28.196Z,56.31
2018-02-20T18:43:30.605Z,57.49
2018-02-20T18:48:32.033Z,57.11
2018-02-20T18:53:33.482Z,58.04
2018-02-20T18:58:34.874Z,58.10
2018-02-20T19:03:36.221Z,59.25
2018-02-20T19:08:37.619Z,59.00
2018-02-20T19:13:39.812Z,58.84
2018-02-20T19:18:41.537Z,58.47
2018-02-20T19:23:42.942Z,59.01
2018-02-20T19:28:44.280Z,58.99
2018-02-20T19:33:45.714Z,59.01
2018-02-20T19:38:47.123Z,59.35
2018-02-20T19:43:48.526Z,59.65
2018-02-20T19:48:49.956Z,59.23
2018-02-20T19:53:51.336Z,60.10
2018-02-20T19:58:52.838Z,60.56
2018-02-20T20:03:54.213Z,60.54
2018-02-20T20:08:55.680Z,60.91
2018-02-20T20:13:57.040Z,60.81
2018-02-20T20:18:59.121Z,60.99
2018-02-20T20:24:00.451Z,60.98
2018-02-20T20:29:01.863Z,61.03
2018-02-20T20:34:03.332Z,61.36
2018-02-20T20:39:04.744Z,62.09
2018-02-20T20:44:06.184Z,62.53
2018-02-20T20:49:07.527Z,62.30
2018-02-20T20:54:08.892Z,62.50
2018-02-20T20:59:10.364Z,62.18
2018-02-20T21:04:11.784Z,61.93
2018-02-20T21:09:13.296Z,61.87
2018-02-20T21:14:14.667Z,61.73
2018-02-20T21:19:16.013Z,61.73
2018-02-20T21:24:17.632Z,61.75
2018-02-20T21:29:19.238Z,61.98
2018-02-20T21:34:20.816Z,62.13
2018-02-20T21:39:22.919Z,62.11
2018-02-20T21:44:24.301Z,62.36
2018-02-20T21:49:26.417Z,62.77
2018-02-20T21:54:27.844Z,62.81
2018-02-20T21:59:29.286Z,62.52
2018-02-20T22:04:30.620Z,62.31
2018-02-20T22:09:31.976Z,62.39
2018-02-20T22:14:33.532Z,63.63
2018-02-20T22:19:34.871Z,63.37
2018-02-20T22:24:36.988Z,63.52
2018-02-20T22:29:39.052Z,63.86
2018-02-20T22:34:40.402Z,63.81
2018-02-20T22:39:41.986Z,63.95
2018-02-20T22:44:43.345Z,63.96
2018-02-20T22:49:44.673Z,63.88
2018-02-20T22:54:46.049Z,63.69
2018-02-20T22:59:47.519Z,64.56
2018-02-20T23:04:48.860Z,64.71
2018-02-20T23:09:50.225Z,64.53
2018-02-20T23:14:52.292Z,65.05
2018-02-20T23:19:53.647Z,65.23
2018-02-20T23:24:55.014Z,66.40
2018-02-20T23:29:56.356Z,65.92
2018-02-20T23:34:57.704Z,65.73
2018-02-20T23:39:59.170Z,65.75
2018-02-20T23:45:01.235Z,66.16
2018-02-20T23:50:02.581Z,66.54
2018-02-20T23:55:04.024Z,66.46
